Time;durP1;ratioP1;P1;durP2;ratioP2;P2;SDS_P1;SDS_P2;PMS_P1;PMS_P2;Temp;Humidity;BMP_temperature;BMP_pressure;BME280_temperature;BME280_humidity;BME280_pressure;Samples;Min_cycle;Max_cycle;Signal;HPM_P1;HPM_P2
2022/01/16 00:04:34;;;;;;;84.43;26.48;;;2.10;99.90;;;;;;5110324;28;20508;-77
2022/01/16 00:07:03;;;;;;;83.10;27.30;;;2.00;99.90;;;;;;5096366;28;20109;-77
2022/01/16 00:09:30;;;;;;;80.97;25.42;;;1.90;99.90;;;;;;5080735;28;20047;-76
2022/01/16 00:11:59;;;;;;;82.30;27.58;;;1.80;99.90;;;;;;5083999;28;20040;-76
2022/01/16 00:14:25;;;;;;;95.50;28.40;;;1.90;99.90;;;;;;5087258;28;20059;-75
2022/01/16 00:16:51;;;;;;;76.53;24.10;;;1.80;99.90;;;;;;5104995;28;20071;-76
2022/01/16 00:19:17;;;;;;;89.93;26.10;;;1.80;99.90;;;;;;5080780;28;20090;-75
2022/01/16 00:21:43;;;;;;;78.97;28.20;;;1.80;99.90;;;;;;5096674;28;20507;-77
2022/01/16 00:24:10;;;;;;;80.72;27.35;;;1.80;99.90;;;;;;5077145;28;20055;-76
2022/01/16 00:26:36;;;;;;;78.88;26.35;;;1.70;99.90;;;;;;5107563;28;20122;-75
2022/01/16 00:29:04;;;;;;;80.07;26.50;;;1.60;99.90;;;;;;5083671;28;20446;-78
2022/01/16 00:31:29;;;;;;;58.17;20.88;;;1.60;99.90;;;;;;5100132;28;20032;-75
2022/01/16 00:33:55;;;;;;;83.35;26.45;;;1.60;99.90;;;;;;5098947;28;20047;-75
2022/01/16 00:36:21;;;;;;;88.45;28.23;;;1.50;99.90;;;;;;5082340;28;20082;-75
2022/01/16 00:38:48;;;;;;;89.20;28.55;;;1.50;99.90;;;;;;5068021;28;20047;-76
2022/01/16 00:41:17;;;;;;;90.45;28.90;;;1.50;99.90;;;;;;5059772;28;20051;-76
2022/01/16 00:43:43;;;;;;;86.93;27.75;;;1.50;99.90;;;;;;5088064;28;20414;-77
2022/01/16 00:46:09;;;;;;;82.88;27.65;;;1.50;99.90;;;;;;5086146;28;20049;-76
2022/01/16 00:48:35;;;;;;;77.13;26.52;;;1.50;99.90;;;;;;5099113;28;20114;-76
2022/01/16 00:51:01;;;;;;;75.95;25.85;;;1.60;99.90;;;;;;5096360;28;20044;-76
2022/01/16 00:53:27;;;;;;;80.35;27.20;;;1.50;99.90;;;;;;5085911;28;20082;-76
2022/01/16 00:55:52;;;;;;;73.53;25.23;;;1.50;99.90;;;;;;5082475;28;20569;-79
2022/01/16 00:58:18;;;;;;;67.95;23.02;;;1.50;99.90;;;;;;5083296;28;20078;-77
2022/01/16 01:00:44;;;;;;;80.15;26.23;;;1.50;99.90;;;;;;5082932;28;20071;-76
2022/01/16 01:03:11;;;;;;;80.30;27.92;;;1.40;99.90;;;;;;5075549;28;20485;-76
2022/01/16 01:05:37;;;;;;;85.20;28.08;;;1.40;99.90;;;;;;5094686;28;20050;-76
2022/01/16 01:08:04;;;;;;;83.97;27.85;;;1.40;99.90;;;;;;5082286;28;20043;-77
2022/01/16 01:10:34;;;;;;;81.90;24.63;;;1.50;99.90;;;;;;5106796;28;20043;-77
2022/01/16 01:13:10;;;;;;;80.15;26.13;;;1.50;99.90;;;;;;5082127;28;20043;-77
2022/01/16 01:15:43;;;;;;;78.75;28.35;;;1.40;99.90;;;;;;5100641;28;20123;-76
2022/01/16 01:18:10;;;;;;;79.30;26.83;;;1.40;99.90;;;;;;5087915;28;20047;-76
2022/01/16 01:20:38;;;;;;;77.53;27.85;;;1.40;99.90;;;;;;5104546;28;20036;-75
2022/01/16 01:23:04;;;;;;;71.85;26.13;;;1.40;99.90;;;;;;5093921;28;20069;-76
2022/01/16 01:25:29;;;;;;;90.28;30.63;;;1.40;99.90;;;;;;5100980;27;20052;-76
2022/01/16 01:27:55;;;;;;;83.80;30.33;;;1.50;99.90;;;;;;5079582;28;20079;-76
2022/01/16 01:30:23;;;;;;;87.57;27.20;;;1.50;99.90;;;;;;5073912;28;20105;-76
2022/01/16 01:32:51;;;;;;;94.03;28.75;;;1.50;99.90;;;;;;5060571;28;20396;-76
2022/01/16 01:35:18;;;;;;;85.65;28.63;;;1.40;99.90;;;;;;5089176;28;20047;-76
2022/01/16 01:37:45;;;;;;;100.63;30.50;;;1.40;99.90;;;;;;5098931;28;20043;-76
2022/01/16 01:40:16;;;;;;;94.93;30.70;;;1.40;99.90;;;;;;5080477;28;20078;-76
2022/01/16 01:42:46;;;;;;;87.80;27.35;;;1.50;99.90;;;;;;5094935;28;20047;-77
2022/01/16 01:51:04;;;;;;;90.22;30.25;;;1.40;99.90;;;;;;5087912;28;20047;-82
2022/01/16 01:53:30;;;;;;;90.38;30.58;;;1.40;99.90;;;;;;5087950;28;20051;-78
2022/01/16 01:55:56;;;;;;;90.32;31.10;;;1.30;99.90;;;;;;5109508;28;20043;-76
2022/01/16 01:58:21;;;;;;;104.45;35.13;;;1.30;99.90;;;;;;5105062;28;20691;-76
2022/01/16 02:00:47;;;;;;;85.45;29.88;;;1.40;99.90;;;;;;5094418;28;20118;-77
2022/01/16 02:03:23;;;;;;;98.25;31.92;;;1.40;99.90;;;;;;5100552;28;20481;-76
2022/01/16 02:05:49;;;;;;;99.75;32.55;;;1.40;99.90;;;;;;5063563;28;20102;-77
2022/01/16 02:08:15;;;;;;;101.38;33.17;;;1.40;99.90;;;;;;5075338;28;20075;-76
2022/01/16 02:10:42;;;;;;;108.22;32.63;;;1.40;99.90;;;;;;5068799;28;20051;-74
2022/01/16 02:13:16;;;;;;;110.28;34.83;;;1.50;99.90;;;;;;5077826;28;20110;-77
2022/01/16 02:31:44;;;;;;;128.40;36.92;;;1.60;99.90;;;;;;5085274;28;20087;-78
2022/01/16 02:36:58;;;;;;;138.40;39.30;;;1.70;99.90;;;;;;5086107;28;20051;-77
2022/01/16 02:39:26;;;;;;;130.35;38.05;;;1.60;99.90;;;;;;5103895;28;20086;-79
2022/01/16 02:41:54;;;;;;;135.35;39.30;;;1.70;99.90;;;;;;5099008;28;20038;-76
2022/01/16 02:46:50;;;;;;;148.63;37.97;;;1.80;99.90;;;;;;5079247;28;20052;-76
2022/01/16 02:49:31;;;;;;;137.77;37.45;;;1.80;99.90;;;;;;5085585;28;20050;-76
2022/01/16 02:52:05;;;;;;;126.78;35.83;;;1.90;99.90;;;;;;5064740;28;20033;-77
2022/01/16 02:54:35;;;;;;;144.82;38.85;;;1.80;99.90;;;;;;5081428;28;20051;-76
2022/01/16 02:57:02;;;;;;;142.18;39.03;;;1.80;99.90;;;;;;5083327;28;20052;-76
2022/01/16 02:59:28;;;;;;;149.50;40.42;;;1.80;99.90;;;;;;5079794;28;20477;-77
2022/01/16 03:01:54;;;;;;;156.57;40.97;;;1.90;99.90;;;;;;5081222;28;20058;-77
2022/01/16 03:04:20;;;;;;;156.93;41.75;;;1.90;99.90;;;;;;5070128;28;20052;-75
2022/01/16 03:06:46;;;;;;;159.15;40.35;;;1.90;99.90;;;;;;5082201;28;20052;-76
2022/01/16 03:09:12;;;;;;;159.23;41.03;;;1.90;99.90;;;;;;5082953;28;20049;-81
2022/01/16 03:11:45;;;;;;;167.35;40.30;;;1.90;99.90;;;;;;5076200;28;20126;-77
2022/01/16 03:14:14;;;;;;;159.23;41.83;;;1.90;99.90;;;;;;5076903;28;20042;-76
2022/01/16 03:16:45;;;;;;;154.93;39.85;;;2.00;99.90;;;;;;5076936;28;20521;-77
2022/01/16 03:22:02;;;;;;;152.57;41.00;;;2.00;99.90;;;;;;5078474;28;20051;-76
2022/01/16 03:24:32;;;;;;;178.20;42.58;;;2.00;99.90;;;;;;5074323;28;20056;-76
2022/01/16 03:27:19;;;;;;;164.05;41.45;;;1.90;99.90;;;;;;5080833;28;20044;-78
2022/01/16 03:29:52;;;;;;;165.20;40.83;;;1.90;99.90;;;;;;5066938;28;20105;-76
2022/01/16 03:32:20;;;;;;;175.57;42.00;;;1.90;99.90;;;;;;5077303;28;20044;-78
2022/01/16 03:34:46;;;;;;;180.52;43.80;;;2.00;99.90;;;;;;5075709;28;20086;-75
2022/01/16 03:37:12;;;;;;;186.77;43.63;;;1.90;99.90;;;;;;5055715;28;20056;-76
2022/01/16 03:39:38;;;;;;;178.90;42.45;;;1.90;99.90;;;;;;5078141;28;20394;-78
2022/01/16 03:42:05;;;;;;;182.30;41.17;;;1.90;99.90;;;;;;5081622;28;20052;-75
2022/01/16 03:44:30;;;;;;;184.15;42.65;;;2.00;99.90;;;;;;5076762;28;20049;-76
2022/01/16 03:46:56;;;;;;;191.13;41.55;;;2.00;99.90;;;;;;5072362;28;20529;-75
2022/01/16 03:49:26;;;;;;;164.10;42.30;;;2.00;99.90;;;;;;5077919;28;20048;-75
2022/01/16 03:51:53;;;;;;;182.82;41.00;;;2.00;99.90;;;;;;5069626;28;20048;-76
2022/01/16 03:54:22;;;;;;;181.88;41.83;;;2.10;99.90;;;;;;5074898;28;20087;-83
2022/01/16 03:56:48;;;;;;;197.00;41.65;;;2.00;99.90;;;;;;5082218;28;20404;-76
2022/01/16 03:59:15;;;;;;;164.68;38.70;;;2.10;99.90;;;;;;5048248;28;20501;-76
2022/01/16 04:01:41;;;;;;;179.73;40.38;;;2.10;99.90;;;;;;5065804;28;20101;-75
2022/01/16 04:04:06;;;;;;;197.57;42.88;;;2.10;99.90;;;;;;5084764;28;20048;-76
2022/01/16 04:06:32;;;;;;;169.20;37.65;;;2.10;99.90;;;;;;5081564;28;20135;-75
2022/01/16 04:08:59;;;;;;;182.32;42.33;;;2.10;99.90;;;;;;5058242;28;20055;-76
2022/01/16 04:11:27;;;;;;;179.43;39.22;;;2.10;99.90;;;;;;5073390;28;20044;-75
2022/01/16 04:14:03;;;;;;;187.68;39.80;;;2.10;99.90;;;;;;5073434;28;20045;-76
2022/01/16 04:16:29;;;;;;;181.68;39.28;;;2.10;99.90;;;;;;5080089;28;20045;-76
2022/01/16 04:18:55;;;;;;;185.82;39.67;;;2.20;99.90;;;;;;5082687;28;20385;-76
2022/01/16 04:21:23;;;;;;;181.45;40.58;;;2.20;99.90;;;;;;5088937;28;20040;-76
2022/01/16 04:23:50;;;;;;;180.35;39.90;;;2.20;99.90;;;;;;5079616;28;20075;-76
2022/01/16 04:26:17;;;;;;;193.38;39.97;;;2.20;99.90;;;;;;5064484;28;20067;-76
2022/01/16 04:28:46;;;;;;;180.23;40.55;;;2.20;99.90;;;;;;5080567;28;20048;-77
2022/01/16 04:31:13;;;;;;;189.63;41.30;;;2.30;99.90;;;;;;5075561;28;20109;-76
2022/01/16 04:33:39;;;;;;;183.15;38.97;;;2.30;99.90;;;;;;5082871;28;20211;-76
2022/01/16 04:36:05;;;;;;;170.45;39.95;;;2.30;99.90;;;;;;5075810;28;20055;-75
2022/01/16 04:38:33;;;;;;;196.75;42.75;;;2.30;99.90;;;;;;5075027;28;20082;-76
2022/01/16 04:43:49;;;;;;;188.68;41.30;;;2.30;99.90;;;;;;5089437;28;20412;-78
2022/01/16 04:46:15;;;;;;;168.43;40.83;;;2.30;99.90;;;;;;5106126;28;20392;-75
2022/01/16 04:48:41;;;;;;;176.43;41.15;;;2.40;99.90;;;;;;5079964;28;20048;-76
2022/01/16 04:51:07;;;;;;;184.40;41.78;;;2.40;99.90;;;;;;5085174;28;20048;-76
2022/01/16 04:53:33;;;;;;;178.30;40.17;;;2.50;99.90;;;;;;5091251;28;20040;-76
2022/01/16 04:55:59;;;;;;;180.15;40.13;;;2.40;99.90;;;;;;5094009;28;20047;-76
2022/01/16 04:58:25;;;;;;;173.70;39.33;;;2.50;99.90;;;;;;5088493;28;20056;-76
2022/01/16 05:00:50;;;;;;;183.50;40.45;;;2.50;99.90;;;;;;5084924;28;20093;-76
2022/01/16 05:03:16;;;;;;;168.13;40.30;;;2.50;99.90;;;;;;5071210;28;20486;-75
2022/01/16 05:05:42;;;;;;;174.57;41.92;;;2.50;99.90;;;;;;5106450;28;20134;-76
2022/01/16 05:08:08;;;;;;;191.27;42.88;;;2.50;99.90;;;;;;5103824;28;20138;-78
2022/01/16 05:10:33;;;;;;;186.65;43.80;;;2.60;99.90;;;;;;5061581;28;20036;-77
2022/01/16 05:13:25;;;;;;;188.30;39.88;;;2.60;99.90;;;;;;5074945;28;20441;-76
2022/01/16 05:18:29;;;;;;;187.07;41.67;;;2.60;99.90;;;;;;5081864;28;20056;-76
2022/01/16 05:20:54;;;;;;;194.18;43.05;;;2.60;99.90;;;;;;5079414;28;20043;-76
2022/01/16 05:23:20;;;;;;;195.80;43.55;;;2.60;99.90;;;;;;5098898;28;20388;-76
2022/01/16 05:25:46;;;;;;;196.85;42.90;;;2.70;99.90;;;;;;5109005;28;20047;-75
2022/01/16 05:28:11;;;;;;;201.68;42.75;;;2.70;99.90;;;;;;5098466;28;20043;-75
2022/01/16 05:30:37;;;;;;;179.75;41.80;;;2.70;99.90;;;;;;5084265;28;20040;-75
2022/01/16 05:33:02;;;;;;;196.40;43.22;;;2.70;99.90;;;;;;5076884;28;20047;-76
2022/01/16 05:35:28;;;;;;;199.90;45.33;;;2.80;99.90;;;;;;5084241;28;20123;-76
2022/01/16 05:37:54;;;;;;;202.82;45.17;;;2.70;99.90;;;;;;5086136;28;20044;-75
2022/01/16 05:40:19;;;;;;;188.95;42.22;;;2.80;99.90;;;;;;5083670;28;20043;-75
2022/01/16 05:42:45;;;;;;;184.30;44.20;;;2.80;99.90;;;;;;5103143;28;20402;-76
2022/01/16 05:45:11;;;;;;;184.20;41.95;;;2.90;99.90;;;;;;5069519;28;20047;-76
2022/01/16 05:47:37;;;;;;;176.55;41.28;;;2.80;99.90;;;;;;5098255;28;20047;-75
2022/01/16 05:50:03;;;;;;;176.35;40.95;;;2.80;99.90;;;;;;5106515;28;20048;-76
2022/01/16 05:52:29;;;;;;;186.25;42.85;;;2.80;99.90;;;;;;5080108;28;20078;-76
2022/01/16 05:54:55;;;;;;;189.18;44.67;;;2.80;99.90;;;;;;5075987;28;20039;-76
2022/01/16 05:57:20;;;;;;;205.38;45.45;;;2.90;99.90;;;;;;5107849;28;20047;-76
2022/01/16 05:59:46;;;;;;;202.25;45.42;;;2.90;99.90;;;;;;5088393;28;20455;-75
2022/01/16 06:02:12;;;;;;;195.77;45.40;;;3.00;99.90;;;;;;5070915;28;20086;-75
2022/01/16 06:04:37;;;;;;;176.18;42.95;;;3.00;99.90;;;;;;5099475;28;20059;-82
2022/01/16 06:07:05;;;;;;;177.63;41.13;;;3.00;99.90;;;;;;5106944;28;20104;-76
2022/01/16 06:09:30;;;;;;;179.98;42.97;;;2.90;99.90;;;;;;5079741;28;20382;-76
2022/01/16 06:11:57;;;;;;;179.95;43.03;;;3.00;99.90;;;;;;5104513;28;20073;-75
2022/01/16 06:14:24;;;;;;;177.80;42.40;;;3.00;99.90;;;;;;5103883;28;20048;-76
2022/01/16 06:16:53;;;;;;;179.82;42.85;;;3.00;99.90;;;;;;5091508;28;20059;-76
2022/01/16 06:19:19;;;;;;;174.10;43.92;;;3.10;99.90;;;;;;5064549;28;20134;-76
2022/01/16 06:21:46;;;;;;;196.10;43.40;;;3.10;99.90;;;;;;5092295;28;20039;-76
2022/01/16 06:24:12;;;;;;;151.50;37.83;;;3.10;99.90;;;;;;5093011;28;20080;-76
2022/01/16 06:26:38;;;;;;;170.45;43.08;;;3.10;99.90;;;;;;5078016;28;20074;-78
2022/01/16 06:29:04;;;;;;;171.30;43.90;;;3.10;99.90;;;;;;5059985;28;20070;-77
2022/01/16 06:31:31;;;;;;;186.32;44.30;;;3.10;99.90;;;;;;5079804;28;20462;-77
2022/01/16 06:34:00;;;;;;;183.45;43.67;;;3.20;99.90;;;;;;5089019;28;20052;-75
2022/01/16 06:36:26;;;;;;;186.25;43.30;;;3.30;99.90;;;;;;5089694;28;20052;-78
2022/01/16 06:38:53;;;;;;;155.75;38.88;;;3.20;99.90;;;;;;5092956;28;20078;-76
2022/01/16 06:41:19;;;;;;;179.30;42.40;;;3.20;99.90;;;;;;5086510;28;20083;-75
2022/01/16 06:43:45;;;;;;;188.02;42.05;;;3.20;99.90;;;;;;5066000;28;20071;-75
2022/01/16 06:46:11;;;;;;;184.10;45.33;;;3.30;99.90;;;;;;5071978;28;20055;-76
2022/01/16 06:48:37;;;;;;;177.45;44.95;;;3.30;99.90;;;;;;5090826;28;20101;-75
2022/01/16 06:51:03;;;;;;;172.75;40.67;;;3.30;99.90;;;;;;5086869;28;21820;-77
2022/01/16 06:53:29;;;;;;;176.60;45.60;;;3.30;99.90;;;;;;5098433;28;20052;-76
2022/01/16 06:55:55;;;;;;;158.88;41.95;;;3.40;99.90;;;;;;5088406;28;20499;-76
2022/01/16 06:58:21;;;;;;;184.18;43.33;;;3.40;99.90;;;;;;5048817;28;20087;-76
2022/01/16 07:00:47;;;;;;;159.40;41.10;;;3.30;99.90;;;;;;5095370;28;20048;-76
2022/01/16 07:03:14;;;;;;;164.32;40.33;;;3.40;99.90;;;;;;5091754;28;20079;-78
2022/01/16 07:05:41;;;;;;;162.30;41.28;;;3.40;99.90;;;;;;5101052;28;20051;-76
2022/01/16 07:08:06;;;;;;;151.57;40.55;;;3.40;99.90;;;;;;5096136;28;20056;-76
2022/01/16 07:10:32;;;;;;;168.90;42.38;;;3.50;99.90;;;;;;5099671;28;20544;-77
2022/01/16 07:12:58;;;;;;;164.40;43.33;;;3.50;99.90;;;;;;5070674;28;20104;-77
2022/01/16 07:15:24;;;;;;;168.85;44.47;;;3.50;99.90;;;;;;5088197;28;20051;-76
2022/01/16 07:17:49;;;;;;;165.73;43.30;;;3.50;99.90;;;;;;5080308;28;20051;-77
2022/01/16 07:20:15;;;;;;;171.35;43.42;;;3.50;99.90;;;;;;5101703;28;20040;-76
2022/01/16 07:22:42;;;;;;;170.77;41.13;;;3.60;99.90;;;;;;5084774;28;20123;-76
2022/01/16 07:25:08;;;;;;;176.15;43.15;;;3.50;99.90;;;;;;5075996;28;20512;-76
2022/01/16 07:27:34;;;;;;;173.15;44.97;;;3.60;99.90;;;;;;5103154;28;20036;-76
2022/01/16 07:30:00;;;;;;;159.10;40.75;;;3.60;99.90;;;;;;5096107;28;20048;-76
2022/01/16 07:32:25;;;;;;;180.73;45.50;;;3.60;99.90;;;;;;5089701;28;20043;-75
2022/01/16 07:34:51;;;;;;;176.65;44.92;;;3.60;99.90;;;;;;5100805;28;20504;-77
2022/01/16 07:37:17;;;;;;;177.30;45.03;;;3.60;99.90;;;;;;5075442;28;20350;-76
2022/01/16 07:39:42;;;;;;;169.38;44.28;;;3.70;99.90;;;;;;5079079;28;20051;-77
2022/01/16 07:42:08;;;;;;;165.13;45.53;;;3.70;99.90;;;;;;5089500;28;20864;-76
2022/01/16 07:44:34;;;;;;;166.45;43.13;;;3.70;99.90;;;;;;5096690;28;20054;-76
2022/01/16 07:46:59;;;;;;;173.02;43.50;;;3.70;99.90;;;;;;5096896;28;20382;-76
2022/01/16 07:49:25;;;;;;;176.50;44.97;;;3.70;99.90;;;;;;5083499;28;20108;-76
2022/01/16 07:51:51;;;;;;;172.60;43.90;;;3.80;99.90;;;;;;5068272;28;20076;-82
2022/01/16 07:54:18;;;;;;;172.60;44.95;;;3.80;99.90;;;;;;5108651;28;20043;-76
2022/01/16 07:56:44;;;;;;;167.82;44.92;;;3.90;99.90;;;;;;5108959;28;20075;-78
2022/01/16 07:59:10;;;;;;;154.55;42.90;;;3.80;99.90;;;;;;5089249;28;20079;-77
2022/01/16 08:01:36;;;;;;;168.18;45.15;;;3.90;99.90;;;;;;5084103;28;20043;-76
2022/01/16 08:04:01;;;;;;;145.30;39.88;;;4.00;99.90;;;;;;5088209;28;20112;-77
2022/01/16 08:06:27;;;;;;;144.40;45.17;;;4.00;99.90;;;;;;5082178;28;20066;-78
2022/01/16 08:08:53;;;;;;;133.05;40.13;;;4.00;99.90;;;;;;5086539;28;20048;-81
2022/01/16 08:11:19;;;;;;;121.00;38.40;;;4.10;99.90;;;;;;5074880;28;20054;-76
2022/01/16 08:13:44;;;;;;;131.80;41.15;;;4.10;99.90;;;;;;5052693;28;20043;-76
2022/01/16 08:16:10;;;;;;;148.65;46.20;;;4.20;99.90;;;;;;5082361;28;20036;-78
2022/01/16 08:18:36;;;;;;;148.27;43.60;;;4.20;99.90;;;;;;5087600;28;20036;-76
2022/01/16 08:21:02;;;;;;;129.10;40.78;;;4.30;99.90;;;;;;5102437;28;20110;-76
2022/01/16 08:23:27;;;;;;;153.02;44.38;;;4.30;99.90;;;;;;5083873;28;20052;-78
2022/01/16 08:25:53;;;;;;;152.45;44.90;;;4.40;99.90;;;;;;5089528;28;20044;-76
2022/01/16 08:28:19;;;;;;;134.70;42.60;;;4.40;99.90;;;;;;5084266;28;20198;-75
2022/01/16 08:30:45;;;;;;;145.35;44.33;;;4.50;99.90;;;;;;5077115;28;20056;-76
2022/01/16 08:33:11;;;;;;;133.05;42.92;;;4.50;99.90;;;;;;5098807;28;20048;-76
2022/01/16 08:35:36;;;;;;;140.75;45.42;;;4.60;99.90;;;;;;5104100;28;20044;-76
2022/01/16 08:38:03;;;;;;;138.10;43.45;;;4.50;99.90;;;;;;5082195;28;20043;-76
2022/01/16 08:40:29;;;;;;;133.68;43.67;;;4.60;99.90;;;;;;5077832;28;20044;-76
2022/01/16 08:42:54;;;;;;;128.45;43.15;;;4.60;99.90;;;;;;5099407;28;20055;-76
2022/01/16 08:45:20;;;;;;;136.82;44.67;;;4.70;99.90;;;;;;5090648;28;20052;-77
2022/01/16 08:47:46;;;;;;;132.95;43.28;;;4.60;99.90;;;;;;5086015;28;20048;-77
2022/01/16 08:50:14;;;;;;;113.32;38.08;;;4.70;99.90;;;;;;5072178;28;20131;-76
2022/01/16 08:52:41;;;;;;;138.57;43.80;;;4.70;99.90;;;;;;5075465;28;20082;-78
2022/01/16 08:55:09;;;;;;;121.97;41.90;;;4.70;99.90;;;;;;5094041;28;20075;-77
2022/01/16 08:57:36;;;;;;;125.82;42.65;;;4.80;99.90;;;;;;5091713;28;20043;-77
2022/01/16 09:00:04;;;;;;;124.38;40.88;;;4.90;99.90;;;;;;5084876;28;20049;-77
2022/01/16 09:02:29;;;;;;;131.35;43.55;;;4.80;99.90;;;;;;5100688;27;20060;-77
2022/01/16 09:04:55;;;;;;;119.00;40.97;;;4.80;99.90;;;;;;5082888;28;20193;-77
2022/01/16 09:07:21;;;;;;;122.10;41.78;;;4.90;99.90;;;;;;5078828;28;20092;-76
2022/01/16 09:09:46;;;;;;;107.13;39.78;;;4.90;99.90;;;;;;5055043;28;20045;-76
2022/01/16 09:12:12;;;;;;;113.50;40.28;;;4.90;99.90;;;;;;5072229;28;20054;-74
2022/01/16 09:14:38;;;;;;;105.43;40.13;;;5.00;99.90;;;;;;5105150;28;20118;-76
2022/01/16 09:17:04;;;;;;;101.93;39.33;;;5.00;99.90;;;;;;5075567;28;20189;-84
2022/01/16 09:19:29;;;;;;;101.68;37.75;;;5.10;99.90;;;;;;5076051;28;20048;-75
2022/01/16 09:21:56;;;;;;;103.40;37.53;;;5.10;99.90;;;;;;5058352;28;20040;-75
2022/01/16 09:24:22;;;;;;;108.93;39.50;;;5.20;99.90;;;;;;5080479;28;20324;-80
2022/01/16 09:26:49;;;;;;;93.72;35.13;;;5.20;99.90;;;;;;5074428;28;20047;-78
2022/01/16 09:29:15;;;;;;;101.13;38.47;;;5.20;99.90;;;;;;5056766;28;20131;-78
2022/01/16 09:31:40;;;;;;;102.55;40.08;;;5.30;99.90;;;;;;5073975;28;20127;-79
2022/01/16 09:34:06;;;;;;;94.90;37.67;;;5.40;99.90;;;;;;5074508;28;20044;-80
2022/01/16 09:36:32;;;;;;;87.82;36.28;;;5.40;99.90;;;;;;5073698;28;20045;-78
2022/01/16 09:38:57;;;;;;;90.22;36.17;;;5.50;99.90;;;;;;5074908;28;20044;-79
2022/01/16 09:41:24;;;;;;;97.10;37.58;;;5.50;99.90;;;;;;5073047;28;20162;-80
2022/01/16 09:43:50;;;;;;;87.30;36.25;;;5.50;99.90;;;;;;5095441;28;20042;-78
2022/01/16 09:46:15;;;;;;;86.53;35.85;;;5.60;99.90;;;;;;5109144;28;20059;-80
2022/01/16 09:48:43;;;;;;;87.60;37.25;;;5.50;99.90;;;;;;5111914;28;20117;-80
2022/01/16 09:51:09;;;;;;;81.88;35.67;;;5.60;99.90;;;;;;5092390;28;20048;-79
2022/01/16 09:53:35;;;;;;;74.55;31.10;;;5.60;99.90;;;;;;5099152;28;20074;-80
2022/01/16 09:56:01;;;;;;;83.78;34.67;;;5.70;99.90;;;;;;5079247;28;20389;-78
2022/01/16 09:58:27;;;;;;;81.22;34.90;;;5.70;99.90;;;;;;5090646;28;20044;-79
2022/01/16 10:00:53;;;;;;;88.75;35.05;;;5.70;99.90;;;;;;5069678;28;20048;-80
2022/01/16 10:03:32;;;;;;;79.53;33.88;;;5.80;99.90;;;;;;5073649;28;20524;-79
2022/01/16 10:06:21;;;;;;;78.82;33.08;;;5.80;99.90;;;;;;5075761;28;20131;-77
2022/01/16 10:08:49;;;;;;;82.60;32.95;;;5.80;99.90;;;;;;5091169;28;20043;-78
2022/01/16 10:11:47;;;;;;;80.45;34.40;;;5.80;99.90;;;;;;5090903;28;20044;-75
2022/01/16 10:14:21;;;;;;;68.68;31.15;;;5.80;99.90;;;;;;5091921;28;20127;-78
2022/01/16 10:16:48;;;;;;;74.32;30.70;;;5.80;99.90;;;;;;5082176;28;20583;-76
2022/01/16 10:19:21;;;;;;;67.63;32.83;;;5.80;99.90;;;;;;5076220;28;20122;-80
2022/01/16 10:21:49;;;;;;;68.10;30.50;;;5.80;99.90;;;;;;5076709;28;20117;-77
2022/01/16 10:24:35;;;;;;;59.70;29.92;;;6.00;99.90;;;;;;5094923;28;20075;-77
2022/01/16 10:27:14;;;;;;;67.53;31.05;;;6.00;99.90;;;;;;5100026;28;20047;-78
2022/01/16 10:29:51;;;;;;;66.82;30.55;;;6.00;99.90;;;;;;5086062;28;20105;-77
2022/01/16 10:32:22;;;;;;;58.75;27.92;;;6.00;99.90;;;;;;5056189;28;20059;-76
2022/01/16 10:34:54;;;;;;;61.40;28.58;;;6.10;99.90;;;;;;5058087;28;20048;-78
2022/01/16 10:37:30;;;;;;;63.45;28.67;;;6.10;99.90;;;;;;5090984;28;20063;-77
2022/01/16 10:40:14;;;;;;;;;;;6.20;99.90;;;;;;5073945;28;20079;-77
2022/01/16 10:42:41;;;;;;;60.40;27.48;;;6.20;99.90;;;;;;5073059;28;19920;-77
2022/01/16 10:45:09;;;;;;;63.97;28.30;;;6.20;99.90;;;;;;5073110;28;20048;-77
2022/01/16 10:47:39;;;;;;;55.53;26.42;;;6.20;99.90;;;;;;5072558;28;20151;-77
2022/01/16 10:50:05;;;;;;;54.30;25.77;;;6.20;99.90;;;;;;5073399;28;20393;-77
2022/01/16 10:52:31;;;;;;;64.88;27.63;;;6.20;99.90;;;;;;5072726;28;20051;-77
2022/01/16 10:55:09;;;;;;;57.33;27.35;;;6.20;99.90;;;;;;5073243;28;20044;-77
2022/01/16 10:57:34;;;;;;;57.88;26.95;;;6.20;99.90;;;;;;5072537;28;20048;-77
2022/01/16 11:00:11;;;;;;;57.42;26.70;;;6.20;99.90;;;;;;5072894;28;20056;-78
2022/01/16 11:02:39;;;;;;;47.58;26.52;;;6.20;99.90;;;;;;5072704;28;20047;-77
2022/01/16 11:05:13;;;;;;;45.95;23.83;;;6.30;99.90;;;;;;5091135;28;20059;-77
2022/01/16 11:07:40;;;;;;;44.60;22.38;;;6.30;99.90;;;;;;5072369;28;20130;-78
2022/01/16 11:10:31;;;;;;;54.30;23.17;;;6.40;99.90;;;;;;5091014;28;20048;-77
2022/01/16 11:13:18;;;;;;;47.58;23.50;;;6.30;99.90;;;;;;5073034;28;20545;-77
2022/01/16 11:15:52;;;;;;;52.38;21.83;;;6.30;99.90;;;;;;5090836;28;20048;-79
2022/01/16 11:18:20;;;;;;;40.95;21.67;;;6.30;99.90;;;;;;5090637;28;20175;-83
2022/01/16 11:21:03;;;;;;;46.67;20.45;;;6.40;99.90;;;;;;5090643;28;20036;-77
2022/01/16 11:23:33;;;;;;;45.08;20.95;;;6.40;99.90;;;;;;5072085;28;20044;-77
2022/01/16 11:26:03;;;;;;;39.13;20.30;;;6.40;99.90;;;;;;5090774;28;20051;-78
2022/01/16 11:28:29;;;;;;;38.60;19.70;;;6.30;99.90;;;;;;5072540;28;20044;-78
2022/01/16 11:31:06;;;;;;;41.80;19.73;;;6.40;99.90;;;;;;5090750;28;20481;-77
2022/01/16 11:33:33;;;;;;;42.47;18.98;;;6.40;99.90;;;;;;5090165;28;20044;-77
2022/01/16 11:36:28;;;;;;;39.65;18.70;;;6.40;99.90;;;;;;5079038;28;20055;-77
2022/01/16 11:39:00;;;;;;;38.53;19.80;;;6.40;99.90;;;;;;5099229;28;20122;-79
2022/01/16 11:41:36;;;;;;;38.15;18.88;;;6.40;99.90;;;;;;5076719;28;20052;-78
2022/01/16 11:44:21;;;;;;;37.17;16.92;;;6.40;99.90;;;;;;5077977;28;20048;-74
2022/01/16 11:46:52;;;;;;;38.35;16.85;;;6.30;99.90;;;;;;5072790;28;20055;-76
2022/01/16 11:49:34;;;;;;;36.42;16.30;;;6.40;99.90;;;;;;5108629;28;20086;-77
2022/01/16 11:52:07;;;;;;;31.33;15.60;;;6.50;99.90;;;;;;5089631;28;20095;-78
2022/01/16 11:54:35;;;;;;;30.73;14.02;;;6.50;99.90;;;;;;5092036;28;20051;-78
2022/01/16 11:57:03;;;;;;;26.23;12.27;;;6.40;99.90;;;;;;5083175;28;20048;-77
2022/01/16 11:59:38;;;;;;;37.80;11.77;;;6.50;99.90;;;;;;5092319;28;20059;-76
2022/01/16 12:02:04;;;;;;;28.17;11.60;;;6.60;99.90;;;;;;5110187;28;20035;-76
2022/01/16 12:04:30;;;;;;;19.85;9.90;;;6.60;99.90;;;;;;5092050;28;20289;-77
2022/01/16 12:07:22;;;;;;;24.92;10.88;;;6.60;99.90;;;;;;5090354;28;20126;-77
2022/01/16 12:09:49;;;;;;;24.02;10.65;;;6.60;99.90;;;;;;5088921;28;20055;-77
2022/01/16 12:12:15;;;;;;;21.67;10.25;;;6.60;99.90;;;;;;5090815;28;20066;-77
2022/01/16 12:14:51;;;;;;;21.75;9.73;;;6.70;99.90;;;;;;5067767;28;20036;-78
2022/01/16 12:17:39;;;;;;;20.60;10.48;;;6.70;99.90;;;;;;5103016;28;20083;-77
2022/01/16 12:20:21;;;;;;;21.10;9.57;;;6.80;99.90;;;;;;5076354;28;20100;-76
2022/01/16 12:23:08;;;;;;;23.48;9.88;;;6.70;99.90;;;;;;5097837;28;20040;-77
2022/01/16 12:25:39;;;;;;;17.70;9.23;;;6.80;99.90;;;;;;5096944;28;20687;-77
2022/01/16 12:28:06;;;;;;;26.85;10.15;;;6.80;99.90;;;;;;5074647;28;20094;-77
2022/01/16 12:30:55;;;;;;;17.50;9.13;;;6.70;99.90;;;;;;5081124;28;20039;-78
2022/01/16 12:33:40;;;;;;;22.13;9.48;;;6.80;99.90;;;;;;5090125;28;20561;-77
2022/01/16 12:36:34;;;;;;;17.88;7.93;;;6.90;99.90;;;;;;5087059;28;20048;-77
2022/01/16 12:39:01;;;;;;;16.85;8.57;;;6.90;99.90;;;;;;5093630;28;20061;-77
2022/01/16 12:41:31;;;;;;;22.83;8.40;;;6.80;99.90;;;;;;5071584;28;20043;-77
2022/01/16 12:43:59;;;;;;;18.60;8.65;;;6.80;99.90;;;;;;5083464;28;20036;-78
2022/01/16 12:46:51;;;;;;;22.13;8.93;;;6.80;99.90;;;;;;5083457;28;20056;-78
2022/01/16 12:49:20;;;;;;;19.25;8.40;;;6.90;99.90;;;;;;5088229;28;20063;-77
2022/01/16 12:51:49;;;;;;;21.52;8.82;;;6.90;99.90;;;;;;5069001;28;20048;-77
2022/01/16 12:54:21;;;;;;;15.88;7.20;;;6.90;99.90;;;;;;5089774;28;20095;-78
2022/01/16 12:56:49;;;;;;;19.85;8.00;;;6.90;99.90;;;;;;5112744;28;20085;-78
2022/01/16 12:59:24;;;;;;;23.63;7.97;;;6.90;99.90;;;;;;5074767;28;20086;-76
2022/01/16 13:01:52;;;;;;;17.15;7.30;;;6.90;99.90;;;;;;5089484;28;20040;-76
2022/01/16 13:04:28;;;;;;;20.35;7.85;;;6.90;99.90;;;;;;5100340;28;20048;-78
2022/01/16 13:06:55;;;;;;;;;;;6.90;99.90;;;;;;5080799;28;20043;-77
2022/01/16 13:09:22;;;;;;;18.92;7.75;;;6.90;99.90;;;;;;5093853;28;19919;-79
2022/01/16 13:11:53;;;;;;;18.52;7.63;;;7.00;99.90;;;;;;5109201;28;20055;-80
2022/01/16 13:14:32;;;;;;;19.40;8.15;;;7.00;99.90;;;;;;5087339;28;20040;-77
2022/01/16 13:17:04;;;;;;;18.05;8.13;;;6.90;99.90;;;;;;5093290;28;20386;-78
2022/01/16 13:19:39;;;;;;;19.60;7.45;;;7.00;99.90;;;;;;5104075;28;20122;-78